sensor_id;sensor_type;location;lat;lon;timestamp;temperature;humidity
29363;DHT22;16349;53.672;10.014;2023-07-20T00:01:51;14.30;99.90
29363;DHT22;16349;53.672;10.014;2023-07-20T00:04:18;14.30;99.90
29363;DHT22;16349;53.672;10.014;2023-07-20T00:06:46;14.40;99.90
29363;DHT22;16349;53.672;10.014;2023-07-20T00:09:13;14.40;99.90
29363;DHT22;16349;53.672;10.014;2023-07-20T00:11:40;14.40;99.90
29363;DHT22;16349;53.672;10.014;2023-07-20T00:14:07;14.40;99.90
29363;DHT22;16349;53.672;10.014;2023-07-20T00:16:33;14.40;99.90
29363;DHT22;16349;53.672;10.014;2023-07-20T00:19:00;14.50;99.90
29363;DHT22;16349;53.672;10.014;2023-07-20T00:21:27;14.50;99.90
29363;DHT22;16349;53.672;10.014;2023-07-20T00:23:55;14.50;99.90
29363;DHT22;16349;53.672;10.014;2023-07-20T00:26:22;14.40;99.90
29363;DHT22;16349;53.672;10.014;2023-07-20T00:28:50;14.50;99.90
29363;DHT22;16349;53.672;10.014;2023-07-20T00:31:18;14.50;99.90
29363;DHT22;16349;53.672;10.014;2023-07-20T00:33:45;14.50;99.90
29363;DHT22;16349;53.672;10.014;2023-07-20T00:36:13;14.50;99.90
29363;DHT22;16349;53.672;10.014;2023-07-20T00:38:42;14.50;99.90
29363;DHT22;16349;53.672;10.014;2023-07-20T00:41:10;14.40;99.90
29363;DHT22;16349;53.672;10.014;2023-07-20T00:43:39;14.40;99.90
29363;DHT22;16349;53.672;10.014;2023-07-20T00:46:07;14.40;99.90
29363;DHT22;16349;53.672;10.014;2023-07-20T00:48:34;14.40;99.90
29363;DHT22;16349;53.672;10.014;2023-07-20T00:51:02;14.40;99.90
29363;DHT22;16349;53.672;10.014;2023-07-20T00:53:29;14.40;99.90
29363;DHT22;16349;53.672;10.014;2023-07-20T00:55:56;14.50;99.90
29363;DHT22;16349;53.672;10.014;2023-07-20T00:58:25;14.50;99.90
29363;DHT22;16349;53.672;10.014;2023-07-20T01:00:53;14.50;99.90
29363;DHT22;16349;53.672;10.014;2023-07-20T01:03:20;14.50;99.90
29363;DHT22;16349;53.672;10.014;2023-07-20T01:05:54;14.50;99.90
29363;DHT22;16349;53.672;10.014;2023-07-20T01:08:30;14.50;99.90
29363;DHT22;16349;53.672;10.014;2023-07-20T01:11:03;14.40;99.90
29363;DHT22;16349;53.672;10.014;2023-07-20T01:13:32;14.40;99.90
29363;DHT22;16349;53.672;10.014;2023-07-20T01:16:01;14.40;99.90
29363;DHT22;16349;53.672;10.014;2023-07-20T01:18:28;14.40;99.90
29363;DHT22;16349;53.672;10.014;2023-07-20T01:20:59;14.40;99.90
29363;DHT22;16349;53.672;10.014;2023-07-20T01:24:00;14.40;99.90
29363;DHT22;16349;53.672;10.014;2023-07-20T01:26:44;14.40;99.90
29363;DHT22;16349;53.672;10.014;2023-07-20T01:29:31;14.30;99.90
29363;DHT22;16349;53.672;10.014;2023-07-20T01:32:02;14.30;99.90
29363;DHT22;16349;53.672;10.014;2023-07-20T01:34:34;14.30;99.90
29363;DHT22;16349;53.672;10.014;2023-07-20T01:37:03;14.30;99.90
29363;DHT22;16349;53.672;10.014;2023-07-20T01:39:32;14.30;99.90
29363;DHT22;16349;53.672;10.014;2023-07-20T01:42:00;14.30;99.90
29363;DHT22;16349;53.672;10.014;2023-07-20T01:44:28;14.30;99.90
29363;DHT22;16349;53.672;10.014;2023-07-20T01:46:55;14.30;99.90
29363;DHT22;16349;53.672;10.014;2023-07-20T01:49:23;14.30;99.90
29363;DHT22;16349;53.672;10.014;2023-07-20T01:51:50;14.30;99.90
29363;DHT22;16349;53.672;10.014;2023-07-20T01:54:17;14.30;99.90
29363;DHT22;16349;53.672;10.014;2023-07-20T01:56:45;14.30;99.90
29363;DHT22;16349;53.672;10.014;2023-07-20T01:59:12;14.30;99.90
29363;DHT22;16349;53.672;10.014;2023-07-20T02:01:39;14.30;99.90
29363;DHT22;16349;53.672;10.014;2023-07-20T02:04:05;14.30;99.90
29363;DHT22;16349;53.672;10.014;2023-07-20T02:06:34;14.30;99.90
29363;DHT22;16349;53.672;10.014;2023-07-20T02:09:00;14.30;99.90
29363;DHT22;16349;53.672;10.014;2023-07-20T02:11:30;14.30;99.90
29363;DHT22;16349;53.672;10.014;2023-07-20T02:13:57;14.20;99.90
29363;DHT22;16349;53.672;10.014;2023-07-20T02:16:24;14.20;99.90
29363;DHT22;16349;53.672;10.014;2023-07-20T02:18:52;14.20;99.90
29363;DHT22;16349;53.672;10.014;2023-07-20T02:21:19;14.20;99.90
29363;DHT22;16349;53.672;10.014;2023-07-20T02:23:47;14.20;99.90
29363;DHT22;16349;53.672;10.014;2023-07-20T02:26:14;14.20;99.90
29363;DHT22;16349;53.672;10.014;2023-07-20T02:28:41;14.30;99.90
29363;DHT22;16349;53.672;10.014;2023-07-20T02:31:08;14.30;99.90
29363;DHT22;16349;53.672;10.014;2023-07-20T02:33:34;14.20;99.90
29363;DHT22;16349;53.672;10.014;2023-07-20T02:36:01;14.20;99.90
29363;DHT22;16349;53.672;10.014;2023-07-20T02:38:28;14.20;99.90
29363;DHT22;16349;53.672;10.014;2023-07-20T02:40:57;14.10;99.90
29363;DHT22;16349;53.672;10.014;2023-07-20T02:43:24;14.20;99.90
29363;DHT22;16349;53.672;10.014;2023-07-20T02:45:50;14.10;99.90
29363;DHT22;16349;53.672;10.014;2023-07-20T02:48:17;14.10;99.90
29363;DHT22;16349;53.672;10.014;2023-07-20T02:50:44;14.10;99.90
29363;DHT22;16349;53.672;10.014;2023-07-20T02:53:11;14.10;99.90
29363;DHT22;16349;53.672;10.014;2023-07-20T02:55:38;14.10;99.90
29363;DHT22;16349;53.672;10.014;2023-07-20T02:58:06;14.10;99.90
29363;DHT22;16349;53.672;10.014;2023-07-20T03:00:33;14.10;99.90
29363;DHT22;16349;53.672;10.014;2023-07-20T03:03:00;14.10;99.90
29363;DHT22;16349;53.672;10.014;2023-07-20T03:05:27;14.10;99.90
29363;DHT22;16349;53.672;10.014;2023-07-20T03:07:55;14.10;99.90
29363;DHT22;16349;53.672;10.014;2023-07-20T03:10:22;14.10;99.90
29363;DHT22;16349;53.672;10.014;2023-07-20T03:12:48;14.10;99.90
29363;DHT22;16349;53.672;10.014;2023-07-20T03:15:17;14.10;99.90
29363;DHT22;16349;53.672;10.014;2023-07-20T03:17:44;14.10;99.90
29363;DHT22;16349;53.672;10.014;2023-07-20T03:20:11;14.10;99.90
29363;DHT22;16349;53.672;10.014;2023-07-20T03:22:39;14.10;99.90
29363;DHT22;16349;53.672;10.014;2023-07-20T03:25:07;14.20;99.90
29363;DHT22;16349;53.672;10.014;2023-07-20T03:27:34;14.10;99.90
29363;DHT22;16349;53.672;10.014;2023-07-20T03:30:02;14.10;99.90
29363;DHT22;16349;53.672;10.014;2023-07-20T03:32:30;14.10;99.90
29363;DHT22;16349;53.672;10.014;2023-07-20T03:34:57;14.00;99.90
29363;DHT22;16349;53.672;10.014;2023-07-20T03:37:24;14.10;99.90
29363;DHT22;16349;53.672;10.014;2023-07-20T03:39:51;14.10;99.90
29363;DHT22;16349;53.672;10.014;2023-07-20T03:42:18;14.10;99.90
29363;DHT22;16349;53.672;10.014;2023-07-20T03:44:44;14.10;99.90
29363;DHT22;16349;53.672;10.014;2023-07-20T03:47:11;14.10;99.90
29363;DHT22;16349;53.672;10.014;2023-07-20T03:49:40;14.10;99.90
29363;DHT22;16349;53.672;10.014;2023-07-20T03:52:07;14.10;99.90
29363;DHT22;16349;53.672;10.014;2023-07-20T03:54:34;14.10;99.90
29363;DHT22;16349;53.672;10.014;2023-07-20T03:57:00;14.10;99.90
29363;DHT22;16349;53.672;10.014;2023-07-20T03:59:27;14.00;99.90
29363;DHT22;16349;53.672;10.014;2023-07-20T04:01:54;14.00;99.90
29363;DHT22;16349;53.672;10.014;2023-07-20T04:04:21;14.00;99.90
29363;DHT22;16349;53.672;10.014;2023-07-20T04:06:49;14.00;99.90
29363;DHT22;16349;53.672;10.014;2023-07-20T04:09:16;14.00;99.90
29363;DHT22;16349;53.672;10.014;2023-07-20T04:11:43;14.00;99.90
29363;DHT22;16349;53.672;10.014;2023-07-20T04:14:10;14.00;99.90
29363;DHT22;16349;53.672;10.014;2023-07-20T04:16:37;14.00;99.90
29363;DHT22;16349;53.672;10.014;2023-07-20T04:19:04;14.00;99.90
29363;DHT22;16349;53.672;10.014;2023-07-20T04:21:30;14.10;99.90
29363;DHT22;16349;53.672;10.014;2023-07-20T04:23:59;14.10;99.90
29363;DHT22;16349;53.672;10.014;2023-07-20T04:26:26;14.00;99.90
29363;DHT22;16349;53.672;10.014;2023-07-20T04:28:53;14.00;99.90
29363;DHT22;16349;53.672;10.014;2023-07-20T04:31:41;14.00;99.90
29363;DHT22;16349;53.672;10.014;2023-07-20T04:34:08;14.00;99.90
29363;DHT22;16349;53.672;10.014;2023-07-20T04:36:36;14.00;99.90
29363;DHT22;16349;53.672;10.014;2023-07-20T04:39:05;14.00;99.90
29363;DHT22;16349;53.672;10.014;2023-07-20T04:41:36;14.00;99.90
29363;DHT22;16349;53.672;10.014;2023-07-20T04:44:04;14.00;99.90
29363;DHT22;16349;53.672;10.014;2023-07-20T04:46:30;14.10;99.90
29363;DHT22;16349;53.672;10.014;2023-07-20T04:49:00;14.10;99.90
29363;DHT22;16349;53.672;10.014;2023-07-20T04:51:29;14.20;99.90
29363;DHT22;16349;53.672;10.014;2023-07-20T04:53:57;14.20;99.90
29363;DHT22;16349;53.672;10.014;2023-07-20T04:56:28;14.20;99.90
29363;DHT22;16349;53.672;10.014;2023-07-20T04:58:57;14.10;99.90
29363;DHT22;16349;53.672;10.014;2023-07-20T05:01:23;14.20;99.90
29363;DHT22;16349;53.672;10.014;2023-07-20T05:03:52;14.20;99.90
29363;DHT22;16349;53.672;10.014;2023-07-20T05:06:19;14.20;99.90
29363;DHT22;16349;53.672;10.014;2023-07-20T05:08:46;14.20;99.90
29363;DHT22;16349;53.672;10.014;2023-07-20T05:11:13;14.30;99.90
29363;DHT22;16349;53.672;10.014;2023-07-20T05:13:41;14.30;99.90
29363;DHT22;16349;53.672;10.014;2023-07-20T05:16:08;14.30;99.90
29363;DHT22;16349;53.672;10.014;2023-07-20T05:18:35;14.30;99.90
29363;DHT22;16349;53.672;10.014;2023-07-20T05:21:02;14.30;99.90
29363;DHT22;16349;53.672;10.014;2023-07-20T05:23:29;14.40;99.90
29363;DHT22;16349;53.672;10.014;2023-07-20T05:25:56;14.40;99.90
29363;DHT22;16349;53.672;10.014;2023-07-20T05:28:22;14.40;99.90
29363;DHT22;16349;53.672;10.014;2023-07-20T05:30:51;14.40;99.90
29363;DHT22;16349;53.672;10.014;2023-07-20T05:33:18;14.50;99.90
29363;DHT22;16349;53.672;10.014;2023-07-20T05:35:45;14.50;99.90
29363;DHT22;16349;53.672;10.014;2023-07-20T05:38:12;14.60;99.90
29363;DHT22;16349;53.672;10.014;2023-07-20T05:40:40;14.60;99.90
29363;DHT22;16349;53.672;10.014;2023-07-20T05:43:07;14.70;99.90
29363;DHT22;16349;53.672;10.014;2023-07-20T05:45:35;14.70;99.90
29363;DHT22;16349;53.672;10.014;2023-07-20T05:48:03;14.70;99.90
29363;DHT22;16349;53.672;10.014;2023-07-20T05:50:30;14.80;99.90
29363;DHT22;16349;53.672;10.014;2023-07-20T05:52:57;14.80;99.90
29363;DHT22;16349;53.672;10.014;2023-07-20T05:55:24;14.90;99.90
29363;DHT22;16349;53.672;10.014;2023-07-20T05:57:51;15.00;99.90
29363;DHT22;16349;53.672;10.014;2023-07-20T06:00:20;15.00;99.90
29363;DHT22;16349;53.672;10.014;2023-07-20T06:02:52;15.10;99.90
29363;DHT22;16349;53.672;10.014;2023-07-20T06:05:20;15.20;99.90
29363;DHT22;16349;53.672;10.014;2023-07-20T06:07:47;15.30;99.90
29363;DHT22;16349;53.672;10.014;2023-07-20T06:10:14;15.30;99.90
29363;DHT22;16349;53.672;10.014;2023-07-20T06:12:41;15.40;99.90
29363;DHT22;16349;53.672;10.014;2023-07-20T06:15:24;15.50;99.90
29363;DHT22;16349;53.672;10.014;2023-07-20T06:17:51;15.50;99.90
29363;DHT22;16349;53.672;10.014;2023-07-20T06:20:20;15.50;99.90
29363;DHT22;16349;53.672;10.014;2023-07-20T06:22:46;15.60;99.90
29363;DHT22;16349;53.672;10.014;2023-07-20T06:25:13;15.50;99.90
29363;DHT22;16349;53.672;10.014;2023-07-20T06:27:41;15.50;99.90
29363;DHT22;16349;53.672;10.014;2023-07-20T06:30:09;15.50;99.90
29363;DHT22;16349;53.672;10.014;2023-07-20T06:32:37;15.60;99.90
29363;DHT22;16349;53.672;10.014;2023-07-20T06:35:04;15.60;99.90
29363;DHT22;16349;53.672;10.014;2023-07-20T06:37:33;15.60;99.90
29363;DHT22;16349;53.672;10.014;2023-07-20T06:39:59;15.80;99.90
29363;DHT22;16349;53.672;10.014;2023-07-20T06:42:26;15.80;99.90
29363;DHT22;16349;53.672;10.014;2023-07-20T06:44:53;15.90;99.90
29363;DHT22;16349;53.672;10.014;2023-07-20T06:47:20;15.90;99.90
29363;DHT22;16349;53.672;10.014;2023-07-20T06:49:47;16.00;99.90
29363;DHT22;16349;53.672;10.014;2023-07-20T06:52:14;16.00;99.90
29363;DHT22;16349;53.672;10.014;2023-07-20T06:54:42;16.10;99.90
29363;DHT22;16349;53.672;10.014;2023-07-20T06:57:09;16.10;99.90
29363;DHT22;16349;53.672;10.014;2023-07-20T06:59:36;16.20;99.90
29363;DHT22;16349;53.672;10.014;2023-07-20T07:02:04;16.20;99.90
29363;DHT22;16349;53.672;10.014;2023-07-20T07:04:32;16.30;99.90
29363;DHT22;16349;53.672;10.014;2023-07-20T07:06:59;16.30;99.90
29363;DHT22;16349;53.672;10.014;2023-07-20T07:09:26;16.30;99.90
29363;DHT22;16349;53.672;10.014;2023-07-20T07:11:54;16.30;99.90
29363;DHT22;16349;53.672;10.014;2023-07-20T07:14:21;16.30;99.90
29363;DHT22;16349;53.672;10.014;2023-07-20T07:16:48;16.30;99.90
29363;DHT22;16349;53.672;10.014;2023-07-20T07:19:15;16.40;99.90
29363;DHT22;16349;53.672;10.014;2023-07-20T07:21:42;16.50;99.90
29363;DHT22;16349;53.672;10.014;2023-07-20T07:24:09;16.70;99.90
29363;DHT22;16349;53.672;10.014;2023-07-20T07:26:36;16.80;99.90
29363;DHT22;16349;53.672;10.014;2023-07-20T07:29:04;16.80;99.90
29363;DHT22;16349;53.672;10.014;2023-07-20T07:31:34;16.70;99.90
29363;DHT22;16349;53.672;10.014;2023-07-20T07:34:02;16.60;99.90
29363;DHT22;16349;53.672;10.014;2023-07-20T07:36:28;16.40;99.90
29363;DHT22;16349;53.672;10.014;2023-07-20T07:38:55;16.10;99.90
29363;DHT22;16349;53.672;10.014;2023-07-20T07:41:22;16.00;99.90
29363;DHT22;16349;53.672;10.014;2023-07-20T07:43:49;15.90;99.90
29363;DHT22;16349;53.672;10.014;2023-07-20T07:46:17;15.80;99.90
29363;DHT22;16349;53.672;10.014;2023-07-20T07:48:44;15.70;99.90
29363;DHT22;16349;53.672;10.014;2023-07-20T07:51:11;15.60;99.90
29363;DHT22;16349;53.672;10.014;2023-07-20T07:53:39;15.60;99.90
29363;DHT22;16349;53.672;10.014;2023-07-20T07:56:07;15.60;99.90
29363;DHT22;16349;53.672;10.014;2023-07-20T07:58:34;15.70;99.90
29363;DHT22;16349;53.672;10.014;2023-07-20T08:01:01;15.80;99.90
29363;DHT22;16349;53.672;10.014;2023-07-20T08:03:29;15.80;99.90
29363;DHT22;16349;53.672;10.014;2023-07-20T08:05:56;15.90;99.90
29363;DHT22;16349;53.672;10.014;2023-07-20T08:08:24;16.00;99.90
29363;DHT22;16349;53.672;10.014;2023-07-20T08:10:53;16.10;99.90
29363;DHT22;16349;53.672;10.014;2023-07-20T08:13:21;16.20;99.90
29363;DHT22;16349;53.672;10.014;2023-07-20T08:15:50;16.30;99.90
29363;DHT22;16349;53.672;10.014;2023-07-20T08:18:17;16.40;99.90
29363;DHT22;16349;53.672;10.014;2023-07-20T08:20:46;16.50;99.90
29363;DHT22;16349;53.672;10.014;2023-07-20T08:23:15;16.60;99.90
29363;DHT22;16349;53.672;10.014;2023-07-20T08:25:42;16.70;99.90
29363;DHT22;16349;53.672;10.014;2023-07-20T08:28:10;16.80;99.90
29363;DHT22;16349;53.672;10.014;2023-07-20T08:30:41;16.80;99.90
29363;DHT22;16349;53.672;10.014;2023-07-20T08:33:09;17.00;99.90
29363;DHT22;16349;53.672;10.014;2023-07-20T08:35:38;17.10;99.90
29363;DHT22;16349;53.672;10.014;2023-07-20T08:38:07;17.20;99.90
29363;DHT22;16349;53.672;10.014;2023-07-20T08:40:39;17.20;99.90
29363;DHT22;16349;53.672;10.014;2023-07-20T08:43:06;17.20;99.90
29363;DHT22;16349;53.672;10.014;2023-07-20T08:45:34;17.30;99.90
29363;DHT22;16349;53.672;10.014;2023-07-20T08:48:03;17.30;99.90
29363;DHT22;16349;53.672;10.014;2023-07-20T08:50:32;17.40;99.90
29363;DHT22;16349;53.672;10.014;2023-07-20T08:52:59;17.60;99.90
29363;DHT22;16349;53.672;10.014;2023-07-20T08:55:29;17.70;99.90
29363;DHT22;16349;53.672;10.014;2023-07-20T08:57:57;17.70;99.90
29363;DHT22;16349;53.672;10.014;2023-07-20T09:00:25;17.80;99.90
29363;DHT22;16349;53.672;10.014;2023-07-20T09:02:53;18.00;99.90
29363;DHT22;16349;53.672;10.014;2023-07-20T09:05:21;18.10;99.90
29363;DHT22;16349;53.672;10.014;2023-07-20T09:07:49;18.10;99.90
29363;DHT22;16349;53.672;10.014;2023-07-20T09:10:16;18.10;99.90
29363;DHT22;16349;53.672;10.014;2023-07-20T09:12:44;18.20;99.90
29363;DHT22;16349;53.672;10.014;2023-07-20T09:15:12;18.20;99.90
29363;DHT22;16349;53.672;10.014;2023-07-20T09:17:39;18.00;99.90
29363;DHT22;16349;53.672;10.014;2023-07-20T09:20:07;17.50;99.90
29363;DHT22;16349;53.672;10.014;2023-07-20T09:22:37;16.90;99.90
29363;DHT22;16349;53.672;10.014;2023-07-20T09:25:06;16.60;99.90
29363;DHT22;16349;53.672;10.014;2023-07-20T09:27:38;16.40;99.90
29363;DHT22;16349;53.672;10.014;2023-07-20T09:30:08;16.30;99.90
29363;DHT22;16349;53.672;10.014;2023-07-20T09:32:40;16.30;99.90
29363;DHT22;16349;53.672;10.014;2023-07-20T09:35:13;16.30;99.90
29363;DHT22;16349;53.672;10.014;2023-07-20T09:37:41;16.40;99.90
29363;DHT22;16349;53.672;10.014;2023-07-20T09:40:15;16.40;99.90
29363;DHT22;16349;53.672;10.014;2023-07-20T09:42:43;16.40;99.90
29363;DHT22;16349;53.672;10.014;2023-07-20T09:45:11;16.50;99.90
29363;DHT22;16349;53.672;10.014;2023-07-20T09:47:38;16.60;99.90
29363;DHT22;16349;53.672;10.014;2023-07-20T09:50:07;16.70;99.90
29363;DHT22;16349;53.672;10.014;2023-07-20T09:52:38;16.90;99.90
29363;DHT22;16349;53.672;10.014;2023-07-20T09:55:07;17.00;99.90
29363;DHT22;16349;53.672;10.014;2023-07-20T09:57:35;17.20;99.90
29363;DHT22;16349;53.672;10.014;2023-07-20T10:00:04;17.20;99.90
29363;DHT22;16349;53.672;10.014;2023-07-20T10:02:41;17.20;99.90
29363;DHT22;16349;53.672;10.014;2023-07-20T10:05:11;17.30;99.90
29363;DHT22;16349;53.672;10.014;2023-07-20T10:07:43;17.40;99.90
29363;DHT22;16349;53.672;10.014;2023-07-20T10:10:11;17.60;99.90
29363;DHT22;16349;53.672;10.014;2023-07-20T10:12:41;17.80;99.90
29363;DHT22;16349;53.672;10.014;2023-07-20T10:15:12;18.00;99.90
29363;DHT22;16349;53.672;10.014;2023-07-20T10:17:49;18.10;99.90
29363;DHT22;16349;53.672;10.014;2023-07-20T10:20:19;18.00;99.90
29363;DHT22;16349;53.672;10.014;2023-07-20T10:22:49;17.50;99.90
29363;DHT22;16349;53.672;10.014;2023-07-20T10:25:18;17.20;99.90
29363;DHT22;16349;53.672;10.014;2023-07-20T10:27:47;17.00;99.90
29363;DHT22;16349;53.672;10.014;2023-07-20T10:30:15;16.80;99.90
29363;DHT22;16349;53.672;10.014;2023-07-20T10:32:45;16.60;99.90
29363;DHT22;16349;53.672;10.014;2023-07-20T10:35:13;16.40;99.90
29363;DHT22;16349;53.672;10.014;2023-07-20T10:37:47;16.20;99.90
29363;DHT22;16349;53.672;10.014;2023-07-20T10:40:31;16.20;99.90
29363;DHT22;16349;53.672;10.014;2023-07-20T10:43:03;16.10;99.90
29363;DHT22;16349;53.672;10.014;2023-07-20T10:45:47;16.10;99.90
29363;DHT22;16349;53.672;10.014;2023-07-20T10:48:18;16.20;99.90
29363;DHT22;16349;53.672;10.014;2023-07-20T10:50:46;16.30;99.90
29363;DHT22;16349;53.672;10.014;2023-07-20T10:53:15;16.50;99.90
29363;DHT22;16349;53.672;10.014;2023-07-20T10:55:43;16.70;99.90
29363;DHT22;16349;53.672;10.014;2023-07-20T10:58:12;16.70;99.90
29363;DHT22;16349;53.672;10.014;2023-07-20T11:01:00;16.80;99.90
29363;DHT22;16349;53.672;10.014;2023-07-20T11:03:30;16.60;99.90
29363;DHT22;16349;53.672;10.014;2023-07-20T11:05:57;16.60;99.90
29363;DHT22;16349;53.672;10.014;2023-07-20T11:08:40;16.70;99.90
29363;DHT22;16349;53.672;10.014;2023-07-20T11:11:23;16.80;99.90
29363;DHT22;16349;53.672;10.014;2023-07-20T11:13:54;17.10;99.90
29363;DHT22;16349;53.672;10.014;2023-07-20T11:16:35;17.40;99.90
29363;DHT22;16349;53.672;10.014;2023-07-20T11:19:04;17.50;99.90
29363;DHT22;16349;53.672;10.014;2023-07-20T11:21:36;17.70;99.90
29363;DHT22;16349;53.672;10.014;2023-07-20T11:24:04;17.70;99.90
29363;DHT22;16349;53.672;10.014;2023-07-20T11:26:40;17.70;99.90
29363;DHT22;16349;53.672;10.014;2023-07-20T11:29:06;17.80;99.90
29363;DHT22;16349;53.672;10.014;2023-07-20T11:31:35;17.90;99.90
29363;DHT22;16349;53.672;10.014;2023-07-20T11:34:03;18.10;99.90
29363;DHT22;16349;53.672;10.014;2023-07-20T11:36:30;18.40;99.90
29363;DHT22;16349;53.672;10.014;2023-07-20T11:39:00;18.60;99.90
29363;DHT22;16349;53.672;10.014;2023-07-20T11:41:30;18.60;99.90
29363;DHT22;16349;53.672;10.014;2023-07-20T11:43:57;18.40;99.90
29363;DHT22;16349;53.672;10.014;2023-07-20T11:46:24;18.20;99.90
29363;DHT22;16349;53.672;10.014;2023-07-20T11:48:56;17.70;99.90
29363;DHT22;16349;53.672;10.014;2023-07-20T11:51:25;17.30;99.90
29363;DHT22;16349;53.672;10.014;2023-07-20T11:53:53;16.90;99.90
29363;DHT22;16349;53.672;10.014;2023-07-20T11:56:20;16.70;99.90
29363;DHT22;16349;53.672;10.014;2023-07-20T11:58:47;16.50;99.90
29363;DHT22;16349;53.672;10.014;2023-07-20T12:01:14;16.40;99.90
29363;DHT22;16349;53.672;10.014;2023-07-20T12:03:42;16.30;99.90
29363;DHT22;16349;53.672;10.014;2023-07-20T12:06:09;16.30;99.90
29363;DHT22;16349;53.672;10.014;2023-07-20T12:08:40;16.20;99.90
29363;DHT22;16349;53.672;10.014;2023-07-20T12:11:07;16.20;99.90
29363;DHT22;16349;53.672;10.014;2023-07-20T12:13:38;16.20;99.90
29363;DHT22;16349;53.672;10.014;2023-07-20T12:16:14;16.20;99.90
29363;DHT22;16349;53.672;10.014;2023-07-20T12:18:42;16.30;99.90
29363;DHT22;16349;53.672;10.014;2023-07-20T12:21:09;16.50;99.90
29363;DHT22;16349;53.672;10.014;2023-07-20T12:23:39;16.70;99.90
29363;DHT22;16349;53.672;10.014;2023-07-20T12:26:07;16.80;99.90
29363;DHT22;16349;53.672;10.014;2023-07-20T12:28:38;17.00;99.90
29363;DHT22;16349;53.672;10.014;2023-07-20T12:31:06;17.00;99.90
29363;DHT22;16349;53.672;10.014;2023-07-20T12:33:33;17.10;99.90
29363;DHT22;16349;53.672;10.014;2023-07-20T12:36:00;17.10;99.90
29363;DHT22;16349;53.672;10.014;2023-07-20T12:38:27;17.20;99.90
29363;DHT22;16349;53.672;10.014;2023-07-20T12:40:58;17.30;99.90
29363;DHT22;16349;53.672;10.014;2023-07-20T12:43:25;17.20;99.90
29363;DHT22;16349;53.672;10.014;2023-07-20T12:45:52;17.30;99.90
29363;DHT22;16349;53.672;10.014;2023-07-20T12:48:20;17.40;99.90
29363;DHT22;16349;53.672;10.014;2023-07-20T12:50:47;17.60;99.90
29363;DHT22;16349;53.672;10.014;2023-07-20T12:53:15;17.80;99.90
29363;DHT22;16349;53.672;10.014;2023-07-20T12:55:42;18.00;99.90
29363;DHT22;16349;53.672;10.014;2023-07-20T12:58:12;18.20;99.90
29363;DHT22;16349;53.672;10.014;2023-07-20T13:00:39;18.60;99.90
29363;DHT22;16349;53.672;10.014;2023-07-20T13:03:06;18.60;99.90
29363;DHT22;16349;53.672;10.014;2023-07-20T13:05:34;18.60;99.90
29363;DHT22;16349;53.672;10.014;2023-07-20T13:08:01;18.70;99.90
29363;DHT22;16349;53.672;10.014;2023-07-20T13:10:29;18.80;99.90
29363;DHT22;16349;53.672;10.014;2023-07-20T13:12:56;18.70;99.90
29363;DHT22;16349;53.672;10.014;2023-07-20T13:15:29;18.60;99.90
29363;DHT22;16349;53.672;10.014;2023-07-20T13:17:57;18.20;99.90
29363;DHT22;16349;53.672;10.014;2023-07-20T13:20:26;17.90;99.90
29363;DHT22;16349;53.672;10.014;2023-07-20T13:22:53;17.60;99.90
29363;DHT22;16349;53.672;10.014;2023-07-20T13:25:20;17.70;99.90
29363;DHT22;16349;53.672;10.014;2023-07-20T13:27:47;17.70;99.90
29363;DHT22;16349;53.672;10.014;2023-07-20T13:30:14;17.60;99.90
29363;DHT22;16349;53.672;10.014;2023-07-20T13:32:44;17.90;99.90
29363;DHT22;16349;53.672;10.014;2023-07-20T13:35:11;18.40;99.90
29363;DHT22;16349;53.672;10.014;2023-07-20T13:37:38;18.80;99.90
29363;DHT22;16349;53.672;10.014;2023-07-20T13:40:06;19.20;99.90
29363;DHT22;16349;53.672;10.014;2023-07-20T13:42:34;19.10;99.90
29363;DHT22;16349;53.672;10.014;2023-07-20T13:45:01;19.00;99.90
29363;DHT22;16349;53.672;10.014;2023-07-20T13:47:29;18.80;99.90
29363;DHT22;16349;53.672;10.014;2023-07-20T13:49:58;18.50;99.90
29363;DHT22;16349;53.672;10.014;2023-07-20T13:52:24;18.70;99.90
29363;DHT22;16349;53.672;10.014;2023-07-20T13:54:51;18.70;99.90
29363;DHT22;16349;53.672;10.014;2023-07-20T13:57:18;18.80;99.90
29363;DHT22;16349;53.672;10.014;2023-07-20T13:59:45;19.30;99.90
29363;DHT22;16349;53.672;10.014;2023-07-20T14:02:14;19.90;99.90
29363;DHT22;16349;53.672;10.014;2023-07-20T14:04:41;20.30;99.90
29363;DHT22;16349;53.672;10.014;2023-07-20T14:07:09;20.60;99.90
29363;DHT22;16349;53.672;10.014;2023-07-20T14:09:36;20.90;99.90
29363;DHT22;16349;53.672;10.014;2023-07-20T14:12:04;21.10;99.90
29363;DHT22;16349;53.672;10.014;2023-07-20T14:14:31;21.40;99.90
29363;DHT22;16349;53.672;10.014;2023-07-20T14:16:58;21.60;99.90
29363;DHT22;16349;53.672;10.014;2023-07-20T14:19:25;21.70;99.90
29363;DHT22;16349;53.672;10.014;2023-07-20T14:21:52;21.90;99.90
29363;DHT22;16349;53.672;10.014;2023-07-20T14:24:21;22.10;99.90
29363;DHT22;16349;53.672;10.014;2023-07-20T14:26:48;21.60;99.90
29363;DHT22;16349;53.672;10.014;2023-07-20T14:29:15;20.90;99.90
29363;DHT22;16349;53.672;10.014;2023-07-20T14:31:43;20.90;99.90
29363;DHT22;16349;53.672;10.014;2023-07-20T14:34:10;21.20;99.90
29363;DHT22;16349;53.672;10.014;2023-07-20T14:36:38;21.80;99.90
29363;DHT22;16349;53.672;10.014;2023-07-20T14:39:05;22.20;99.90
29363;DHT22;16349;53.672;10.014;2023-07-20T14:41:33;22.80;99.90
29363;DHT22;16349;53.672;10.014;2023-07-20T14:44:00;23.00;99.90
29363;DHT22;16349;53.672;10.014;2023-07-20T14:46:27;22.90;99.60
29363;DHT22;16349;53.672;10.014;2023-07-20T14:48:54;22.80;99.60
29363;DHT22;16349;53.672;10.014;2023-07-20T14:51:21;22.40;99.90
29363;DHT22;16349;53.672;10.014;2023-07-20T14:53:48;22.10;99.90
29363;DHT22;16349;53.672;10.014;2023-07-20T14:56:15;22.30;98.50
29363;DHT22;16349;53.672;10.014;2023-07-20T14:58:43;22.00;99.00
29363;DHT22;16349;53.672;10.014;2023-07-20T15:01:10;22.30;99.10
29363;DHT22;16349;53.672;10.014;2023-07-20T15:03:37;22.40;99.40
29363;DHT22;16349;53.672;10.014;2023-07-20T15:06:04;22.00;99.10
29363;DHT22;16349;53.672;10.014;2023-07-20T15:08:31;21.30;99.90
29363;DHT22;16349;53.672;10.014;2023-07-20T15:10:58;20.80;99.90
29363;DHT22;16349;53.672;10.014;2023-07-20T15:13:25;20.60;99.90
29363;DHT22;16349;53.672;10.014;2023-07-20T15:15:53;21.00;99.90
29363;DHT22;16349;53.672;10.014;2023-07-20T15:18:20;21.80;99.90
29363;DHT22;16349;53.672;10.014;2023-07-20T15:20:47;21.70;99.90
29363;DHT22;16349;53.672;10.014;2023-07-20T15:23:19;21.60;99.90